Time;durP1;ratioP1;P1;durP2;ratioP2;P2;SDS_P1;SDS_P2;PMS_P1;PMS_P2;Temp;Humidity;BMP_temperature;BMP_pressure;BME280_temperature;BME280_humidity;BME280_pressure;Samples;Min_cycle;Max_cycle;Signal;HPM_P1;HPM_P2
2021/04/26 00:00:28;;;;;;;4.13;1.00;;;;;;;2.00;64.69;102526.03;5071035;27;20872;-78
2021/04/26 00:03:04;;;;;;;4.32;1.00;;;;;;;2.05;64.08;102518.94;5049160;27;20361;-76
2021/04/26 00:05:41;;;;;;;9.00;1.27;;;;;;;2.03;64.97;102515.56;5065839;28;20176;-78
2021/04/26 00:08:18;;;;;;;5.85;1.13;;;;;;;2.00;64.70;102514.78;5064366;27;20388;-74
2021/04/26 00:10:58;;;;;;;1.98;0.93;;;;;;;1.94;63.96;102508.06;5062513;27;20375;-77
2021/04/26 00:13:35;;;;;;;7.53;1.10;;;;;;;1.95;63.47;102514.94;5054109;27;20368;-78
2021/04/26 00:16:12;;;;;;;3.85;1.10;;;;;;;1.91;63.99;102506.44;5103112;27;20385;-76
2021/04/26 00:18:53;;;;;;;3.15;1.08;;;;;;;1.92;64.87;102510.72;5042726;28;20731;-77
2021/04/26 00:21:30;;;;;;;1.08;0.80;;;;;;;1.98;65.52;102501.06;5106342;27;20180;-76
2021/04/26 00:24:07;;;;;;;4.47;1.38;;;;;;;2.18;64.06;102503.88;5045525;27;20422;-80
2021/04/26 00:26:43;;;;;;;6.95;1.20;;;;;;;2.20;64.54;102496.91;5046548;27;20170;-75
2021/04/26 00:29:19;;;;;;;2.75;1.30;;;;;;;2.17;64.80;102496.16;5075835;27;20409;-76
2021/04/26 00:31:56;;;;;;;4.25;0.93;;;;;;;2.00;63.51;102497.56;5103021;27;20666;-77
2021/04/26 00:34:32;;;;;;;3.60;1.10;;;;;;;1.87;63.88;102491.06;5048899;27;20401;-75
2021/04/26 00:37:09;;;;;;;3.58;1.02;;;;;;;1.71;64.91;102486.38;5076429;27;20188;-74
2021/04/26 00:39:45;;;;;;;3.13;1.10;;;;;;;1.60;64.90;102490.13;5054243;28;20389;-75
2021/04/26 00:42:23;;;;;;;5.78;1.30;;;;;;;1.48;65.64;102489.59;5067758;27;20126;-75
2021/04/26 00:45:00;;;;;;;4.40;1.27;;;;;;;1.42;65.31;102486.38;5051586;27;20391;-76
2021/04/26 00:47:38;;;;;;;3.75;0.90;;;;;;;1.36;65.79;102485.66;5075599;27;20192;-74
2021/04/26 00:50:18;;;;;;;2.10;1.00;;;;;;;1.40;66.28;102489.00;5083226;27;20343;-77
2021/04/26 00:52:56;;;;;;;1.17;0.77;;;;;;;1.40;66.12;102477.81;5073570;27;20358;-76
2021/04/26 00:55:35;;;;;;;1.65;1.02;;;;;;;1.40;66.67;102490.75;5145321;27;20357;-76
2021/04/26 00:58:14;;;;;;;3.67;0.93;;;;;;;1.37;66.74;102476.16;5070762;28;20366;-76
2021/04/26 01:00:52;;;;;;;1.08;0.80;;;;;;;1.39;66.36;102481.28;5050490;28;20384;-74
2021/04/26 01:03:29;;;;;;;4.40;0.88;;;;;;;1.41;65.99;102482.91;5047236;27;20133;-78
2021/04/26 01:06:06;;;;;;;5.13;1.15;;;;;;;1.32;66.57;102485.78;5059934;27;20866;-76
2021/04/26 01:08:43;;;;;;;5.30;1.00;;;;;;;1.20;66.83;102484.38;5063289;27;20899;-76
2021/04/26 01:11:56;;;;;;;4.15;1.10;;;;;;;1.16;68.74;102478.44;5069522;27;20355;-78
2021/04/26 01:15:07;;;;;;;3.58;0.80;;;;;;;1.20;68.74;102474.03;5049455;28;21249;-78
2021/04/26 01:17:39;;;;;;;5.80;0.95;;;;;;;1.26;68.62;102473.03;5020504;28;20584;-79
2021/04/26 01:21:02;;;;;;;2.67;0.73;;;;;;;1.27;68.52;102470.41;5063263;28;20379;-78
2021/04/26 01:23:56;;;;;;;2.97;0.90;;;;;;;1.17;67.40;102479.31;5058951;28;20367;-75
2021/04/26 01:26:41;;;;;;;2.33;0.88;;;;;;;1.08;67.42;102467.50;5095090;28;20362;-76
2021/04/26 01:29:48;;;;;;;4.10;1.20;;;;;;;1.05;67.43;102464.13;5083209;27;20374;-78
2021/04/26 01:32:32;;;;;;;3.83;1.13;;;;;;;1.02;67.48;102470.25;5062531;28;20403;-75
2021/04/26 01:35:16;;;;;;;2.90;0.95;;;;;;;1.01;68.29;102465.97;5101887;27;20384;-77
2021/04/26 01:38:02;;;;;;;3.70;1.00;;;;;;;0.92;68.23;102461.03;5026505;28;20373;-76
2021/04/26 01:40:42;;;;;;;1.38;0.70;;;;;;;0.88;68.62;102462.00;5124175;27;20349;-75
2021/04/26 01:43:22;;;;;;;5.50;1.20;;;;;;;0.75;68.54;102462.38;5088619;27;20374;-74
2021/04/26 01:46:06;;;;;;;4.75;1.00;;;;;;;0.68;69.06;102459.97;5061397;27;20380;-76
2021/04/26 01:48:47;;;;;;;4.95;0.70;;;;;;;0.63;68.83;102467.84;5104774;27;20361;-74
2021/04/26 01:51:23;;;;;;;3.42;0.90;;;;;;;0.56;69.61;102471.47;5130959;27;20879;-79
2021/04/26 01:54:01;;;;;;;5.03;0.90;;;;;;;0.47;69.32;102464.81;5056139;28;20192;-76
2021/04/26 01:56:38;;;;;;;3.03;0.70;;;;;;;0.42;70.21;102463.25;5101089;27;20390;-73
2021/04/26 01:59:20;;;;;;;2.22;0.88;;;;;;;0.41;70.73;102462.38;5077169;27;20394;-77
2021/04/26 02:01:58;;;;;;;5.03;1.00;;;;;;;0.37;70.63;102451.28;5085640;27;20376;-75
2021/04/26 02:04:37;;;;;;;3.78;0.90;;;;;;;0.40;71.01;102460.69;5069174;27;20123;-76
2021/04/26 02:07:42;;;;;;;2.75;1.02;;;;;;;0.35;70.57;102455.63;5052071;27;20384;-76
2021/04/26 02:10:28;;;;;;;1.65;0.63;;;;;;;0.33;71.49;102452.25;5059375;27;20889;-75
2021/04/26 02:13:06;;;;;;;2.58;0.95;;;;;;;0.35;71.27;102453.03;5076420;27;20380;-75
2021/04/26 02:15:45;;;;;;;3.58;0.80;;;;;;;0.36;71.16;102454.75;5050067;27;20383;-74
2021/04/26 02:18:23;;;;;;;7.25;0.95;;;;;;;0.38;71.43;102455.56;5065492;27;20394;-75
2021/04/26 02:21:00;;;;;;;3.17;0.68;;;;;;;0.37;72.04;102450.44;5066054;27;20388;-75
2021/04/26 02:23:41;;;;;;;2.30;0.88;;;;;;;0.33;72.39;102453.97;5112292;27;20383;-75
2021/04/26 02:26:16;;;;;;;3.90;1.00;;;;;;;0.34;72.50;102450.50;5100832;27;20393;-77
2021/04/26 02:28:54;;;;;;;1.30;0.68;;;;;;;0.31;72.65;102453.19;5042873;27;20366;-77
2021/04/26 02:31:35;;;;;;;2.90;0.63;;;;;;;0.31;72.94;102454.00;5110372;27;20349;-80
2021/04/26 02:34:23;;;;;;;3.33;0.77;;;;;;;0.30;72.38;102449.75;5088946;27;20872;-79
2021/04/26 02:37:24;;;;;;;1.27;0.55;;;;;;;0.36;72.86;102449.59;5045721;28;20383;-74
2021/04/26 02:40:11;;;;;;;5.15;0.85;;;;;;;0.36;73.62;102447.00;5067910;27;20374;-75
2021/04/26 02:42:50;;;;;;;5.38;0.88;;;;;;;0.39;74.57;102448.66;5060560;27;20396;-76
2021/04/26 02:45:31;;;;;;;4.97;1.02;;;;;;;0.39;74.64;102449.50;5056163;28;20376;-78
2021/04/26 02:48:22;;;;;;;4.13;0.90;;;;;;;0.35;75.22;102449.63;5064460;28;20382;-75
2021/04/26 02:51:06;;;;;;;7.95;1.20;;;;;;;0.24;76.44;102449.88;5052964;27;20373;-76
2021/04/26 02:53:44;;;;;;;2.50;0.82;;;;;;;0.12;75.96;102439.88;5078596;27;20761;-79
2021/04/26 02:56:22;;;;;;;3.40;0.90;;;;;;;0.11;76.77;102440.75;5081992;27;20134;-77
2021/04/26 02:59:01;;;;;;;1.20;0.77;;;;;;;0.10;76.50;102439.06;5071751;27;20371;-77
2021/04/26 03:01:48;;;;;;;3.58;0.80;;;;;;;0.07;76.71;102441.72;5042904;27;20404;-77
2021/04/26 03:04:31;;;;;;;5.55;1.15;;;;;;;0.03;76.89;102446.09;5082820;27;20343;-75
2021/04/26 03:07:12;;;;;;;8.02;1.25;;;;;;;-0.02;77.56;102450.50;5077603;27;20893;-77
2021/04/26 03:10:06;;;;;;;3.35;0.90;;;;;;;-0.11;77.10;102438.69;5138200;27;20354;-75
2021/04/26 03:12:45;;;;;;;2.30;0.88;;;;;;;-0.11;77.14;102443.84;5054435;28;20375;-75
2021/04/26 03:15:25;;;;;;;5.85;1.27;;;;;;;-0.19;77.02;102438.00;5106140;27;20360;-77
2021/04/26 03:18:01;;;;;;;5.32;1.10;;;;;;;-0.21;77.40;102439.78;5052753;27;20385;-77
2021/04/26 03:21:09;;;;;;;3.35;1.00;;;;;;;-0.27;77.06;102432.19;5084952;27;20399;-75
2021/04/26 03:23:49;;;;;;;2.75;1.33;;;;;;;-0.24;77.56;102429.56;5055457;27;20461;-74
2021/04/26 03:26:26;;;;;;;5.95;1.02;;;;;;;-0.20;77.54;102426.00;5051297;27;20381;-77
2021/04/26 03:29:04;;;;;;;5.43;1.20;;;;;;;-0.17;77.23;102428.53;5058493;27;20174;-76
2021/04/26 03:31:41;;;;;;;5.03;1.35;;;;;;;-0.18;77.54;102428.56;5075544;27;20375;-75
2021/04/26 03:34:24;;;;;;;7.50;1.40;;;;;;;-0.15;77.71;102429.34;5037802;28;20377;-76
2021/04/26 03:37:02;;;;;;;6.30;1.27;;;;;;;-0.19;78.00;102430.28;5098671;27;20386;-77
2021/04/26 03:39:41;;;;;;;8.40;1.55;;;;;;;-0.20;77.99;102431.16;5087718;27;20377;-78
2021/04/26 03:42:20;;;;;;;4.22;1.30;;;;;;;-0.21;78.29;102421.72;5065436;27;20388;-75
2021/04/26 03:44:57;;;;;;;3.28;1.08;;;;;;;-0.19;78.16;102422.53;5086040;27;20888;-78
2021/04/26 03:47:55;;;;;;;4.00;1.52;;;;;;;-0.08;78.18;102427.44;5064312;27;20661;-78
2021/04/26 03:50:50;;;;;;;3.83;1.10;;;;;;;-0.04;78.67;102409.28;5050626;27;20387;-78
2021/04/26 03:53:36;;;;;;;2.05;0.90;;;;;;;0.01;78.67;102405.75;5016567;28;20068;-77
2021/04/26 03:56:29;;;;;;;7.40;1.45;;;;;;;0.07;78.96;102410.75;5054878;28;20380;-77
2021/04/26 03:59:06;;;;;;;4.45;1.60;;;;;;;0.10;79.06;102408.09;5115378;27;20181;-76
2021/04/26 04:01:45;;;;;;;4.85;1.40;;;;;;;0.23;77.29;102411.19;5066233;27;20371;-76
2021/04/26 04:04:23;;;;;;;2.72;1.38;;;;;;;0.24;77.26;102406.00;5060960;27;20387;-77
2021/04/26 04:07:13;;;;;;;4.55;2.10;;;;;;;0.14;77.45;102410.56;5087549;28;20371;-77
2021/04/26 04:09:54;;;;;;;3.30;1.35;;;;;;;0.18;77.34;102411.34;5086589;27;20339;-77
2021/04/26 04:12:43;;;;;;;2.88;1.58;;;;;;;0.25;76.72;102412.88;5104566;27;20361;-76
2021/04/26 04:15:23;;;;;;;2.25;1.42;;;;;;;0.24;76.60;102411.16;5087092;27;20335;-77
2021/04/26 04:18:01;;;;;;;3.88;1.67;;;;;;;0.15;76.35;102409.69;5051269;28;20373;-77
2021/04/26 04:20:43;;;;;;;10.18;1.60;;;;;;;0.26;76.73;102416.28;5142815;27;20732;-80
2021/04/26 04:23:21;;;;;;;4.05;1.80;;;;;;;0.27;76.05;102390.44;5083723;27;20451;-82
2021/04/26 04:25:58;;;;;;;5.30;2.05;;;;;;;0.42;75.10;102403.88;5054169;27;20357;-77
2021/04/26 04:28:36;;;;;;;3.60;1.65;;;;;;;0.36;75.11;102402.28;5044959;28;20747;-80
2021/04/26 04:31:17;;;;;;;3.03;1.50;;;;;;;0.34;75.08;102399.75;5050746;27;20411;-80
2021/04/26 04:34:12;;;;;;;4.35;1.60;;;;;;;0.32;75.19;102398.94;4988924;28;20129;-77
2021/04/26 04:37:06;;;;;;;5.07;1.63;;;;;;;0.28;75.90;102397.28;4982834;28;20050;-77
2021/04/26 04:40:05;;;;;;;6.57;1.65;;;;;;;0.28;75.67;102392.13;5081065;27;20348;-77
2021/04/26 04:43:04;;;;;;;3.17;1.35;;;;;;;0.26;75.74;102390.47;5090244;27;20366;-77
2021/04/26 04:45:52;;;;;;;3.90;1.70;;;;;;;0.27;76.74;102398.19;5141525;27;20386;-76
2021/04/26 04:48:48;;;;;;;2.55;1.40;;;;;;;0.32;77.67;102392.91;5105829;27;20338;-75
2021/04/26 04:51:31;;;;;;;3.58;1.70;;;;;;;0.38;77.75;102400.50;5102912;27;20362;-76
2021/04/26 04:54:12;;;;;;;9.23;1.90;;;;;;;0.38;77.69;102392.75;5091549;27;20369;-76
2021/04/26 04:57:06;;;;;;;3.92;1.15;;;;;;;0.46;76.98;102395.97;5076419;27;20873;-76
2021/04/26 04:59:46;;;;;;;4.18;1.40;;;;;;;0.52;76.67;102393.22;5056864;28;20376;-79
2021/04/26 05:02:30;;;;;;;4.43;1.58;;;;;;;0.63;76.35;102397.28;5061084;27;20383;-75
2021/04/26 05:05:39;;;;;;;2.70;1.55;;;;;;;0.76;76.00;102391.72;5065721;27;20383;-77
2021/04/26 05:08:33;;;;;;;1.50;1.40;;;;;;;0.87;75.71;102388.84;5070112;27;20378;-79
2021/04/26 05:11:27;;;;;;;5.40;1.77;;;;;;;1.01;74.99;102383.25;5091872;27;20378;-76
2021/04/26 05:14:31;;;;;;;2.40;1.88;;;;;;;1.12;74.97;102381.22;5098270;27;20382;-80
2021/04/26 05:17:07;;;;;;;3.67;1.67;;;;;;;1.22;74.97;102383.53;5117967;27;20719;-75
2021/04/26 05:19:44;;;;;;;5.20;2.15;;;;;;;1.33;73.45;102384.88;5065953;27;20483;-79
2021/04/26 05:22:20;;;;;;;5.03;1.80;;;;;;;1.41;73.74;102383.81;5068719;27;20131;-76
2021/04/26 05:25:12;;;;;;;5.40;1.80;;;;;;;1.41;73.98;102387.25;5081702;27;20383;-79
2021/04/26 05:27:50;;;;;;;7.13;1.73;;;;;;;1.42;74.88;102378.59;5072741;27;20369;-79
2021/04/26 05:30:29;;;;;;;3.85;1.90;;;;;;;1.53;72.67;102386.03;5064798;27;20126;-77
2021/04/26 05:33:05;;;;;;;7.75;2.20;;;;;;;1.61;71.51;102386.63;5095870;27;20359;-79
2021/04/26 05:35:59;;;;;;;5.82;1.50;;;;;;;1.77;68.78;102386.13;5102838;27;20357;-80
2021/04/26 05:39:00;;;;;;;3.28;1.27;;;;;;;1.88;66.79;102384.88;5091785;27;21102;-79
2021/04/26 05:41:37;;;;;;;2.80;1.63;;;;;;;2.01;65.68;102398.28;5065001;28;20368;-80
2021/04/26 05:44:15;;;;;;;4.32;1.50;;;;;;;2.14;63.87;102393.53;5126631;27;20341;-79
2021/04/26 05:46:58;;;;;;;18.08;1.60;;;;;;;2.42;66.70;102390.03;5074668;27;20355;-79
2021/04/26 05:49:35;;;;;;;7.63;1.98;;;;;;;2.37;62.05;102385.00;5102983;27;20188;-80
2021/04/26 05:52:13;;;;;;;3.85;1.40;;;;;;;2.36;62.83;102393.69;5097845;27;20383;-77
2021/04/26 05:54:51;;;;;;;5.30;1.40;;;;;;;2.42;61.92;102387.44;5075086;27;20217;-80
2021/04/26 05:57:30;;;;;;;4.15;1.25;;;;;;;2.43;62.34;102381.34;5115944;27;791870;-82
2021/04/26 05:59:57;;;;;;;2.67;1.33;;;;;;;2.55;61.84;102386.09;5109231;28;20123;-81
2021/04/26 06:02:23;;;;;;;2.78;1.20;;;;;;;2.46;62.23;102366.53;5091649;28;20056;-81
2021/04/26 06:04:49;;;;;;;2.28;1.40;;;;;;;2.58;63.16;102367.00;5050187;28;20414;-82
2021/04/26 06:07:15;;;;;;;3.40;1.30;;;;;;;2.80;63.15;102385.22;5051360;28;20071;-83
2021/04/26 06:09:41;;;;;;;3.30;1.30;;;;;;;2.82;62.56;102375.63;5050522;28;20052;-82
2021/04/26 06:12:07;;;;;;;2.88;1.40;;;;;;;2.90;62.07;102368.41;5087704;28;20130;-81
2021/04/26 06:14:33;;;;;;;2.63;1.10;;;;;;;2.88;61.57;102368.50;5069366;28;20041;-81
2021/04/26 06:16:59;;;;;;;1.67;1.17;;;;;;;3.08;62.02;102374.69;5051002;28;20522;-82
2021/04/26 06:19:25;;;;;;;4.45;1.55;;;;;;;3.02;61.04;102360.19;5067470;28;20487;-83
2021/04/26 06:21:51;;;;;;;5.00;1.88;;;;;;;3.15;61.38;102358.00;5070481;28;20132;-81
2021/04/26 06:24:46;;;;;;;4.40;1.50;;;;;;;3.41;61.07;102382.06;5070476;28;20127;-81
2021/04/26 06:27:12;;;;;;;1.48;1.15;;;;;;;3.62;60.05;102378.63;4983174;28;20050;-80
2021/04/26 06:29:37;;;;;;;4.43;1.20;;;;;;;3.81;59.43;102372.69;4987429;28;20468;-75
2021/04/26 06:32:03;;;;;;;4.72;1.30;;;;;;;3.79;59.73;102375.34;4963797;28;20063;-76
2021/04/26 06:34:28;;;;;;;5.97;1.20;;;;;;;3.86;60.11;102373.34;4980914;28;20062;-79
2021/04/26 06:36:54;;;;;;;3.33;1.38;;;;;;;3.88;59.90;102369.78;4963053;28;20059;-78
2021/04/26 06:39:20;;;;;;;4.25;1.25;;;;;;;3.94;57.60;102375.59;4983083;28;20412;-77
2021/04/26 06:41:45;;;;;;;4.18;1.50;;;;;;;4.05;58.88;102360.44;4962740;28;20047;-79
2021/04/26 06:44:11;;;;;;;4.75;1.13;;;;;;;4.16;57.88;102371.22;4978192;28;20054;-81
2021/04/26 06:46:36;;;;;;;2.60;1.10;;;;;;;4.22;58.36;102373.56;4986394;28;20066;-76
2021/04/26 06:49:02;;;;;;;2.45;0.95;;;;;;;4.57;56.53;102372.94;4985268;28;20058;-81
2021/04/26 06:51:28;;;;;;;2.08;0.82;;;;;;;4.65;56.31;102369.09;4980577;28;20050;-81
2021/04/26 06:53:53;;;;;;;3.10;1.23;;;;;;;4.57;56.88;102372.94;4967890;28;20051;-80
2021/04/26 06:56:19;;;;;;;4.40;1.00;;;;;;;4.61;56.72;102375.31;4982087;28;20070;-77
2021/04/26 06:58:45;;;;;;;2.85;1.17;;;;;;;4.72;55.46;102367.06;4967263;28;20137;-83
2021/04/26 07:01:10;;;;;;;3.38;0.95;;;;;;;4.81;54.23;102374.44;4967373;28;20074;-81
2021/04/26 07:03:36;;;;;;;5.72;1.10;;;;;;;4.88;54.05;102375.03;4985710;28;20051;-79
2021/04/26 07:06:01;;;;;;;6.28;1.15;;;;;;;5.01;54.53;102367.50;4966039;28;20352;-78
2021/04/26 07:08:27;;;;;;;2.53;1.20;;;;;;;5.25;52.66;102368.97;4971273;28;20048;-78
2021/04/26 07:10:53;;;;;;;6.75;1.17;;;;;;;5.26;53.51;102370.66;4970410;28;20511;-80
2021/04/26 07:13:19;;;;;;;3.78;1.23;;;;;;;5.18;53.18;102364.97;4958486;28;20070;-80
2021/04/26 07:15:45;;;;;;;2.53;1.10;;;;;;;5.32;53.95;102356.50;4955921;28;20043;-78
2021/04/26 07:18:10;;;;;;;3.58;0.80;;;;;;;5.26;54.80;102356.81;4968459;28;20686;-80
2021/04/26 07:20:36;;;;;;;4.20;1.20;;;;;;;5.37;54.34;102356.28;4962759;28;20046;-77
2021/04/26 07:23:03;;;;;;;2.53;0.80;;;;;;;5.37;51.89;102351.94;4968618;28;20505;-81
2021/04/26 07:25:29;;;;;;;2.08;0.85;;;;;;;5.47;50.92;102353.16;4974393;28;20039;-78
2021/04/26 07:27:54;;;;;;;2.85;0.70;;;;;;;5.45;50.85;102351.56;4963373;29;20058;-79
2021/04/26 07:30:20;;;;;;;2.55;1.00;;;;;;;5.70;51.72;102346.00;4971238;28;20854;-76
2021/04/26 07:32:45;;;;;;;1.42;0.77;;;;;;;5.98;51.35;102344.66;4954307;28;20043;-79
2021/04/26 07:35:13;;;;;;;4.95;0.60;;;;;;;6.10;51.26;102354.44;4942257;28;20055;-75
2021/04/26 07:37:40;;;;;;;2.22;1.05;;;;;;;6.22;48.85;102350.41;4955041;28;20047;-81
2021/04/26 07:40:08;;;;;;;7.65;1.00;;;;;;;6.38;49.88;102346.06;4954510;28;20678;-76
2021/04/26 07:42:34;;;;;;;3.63;1.10;;;;;;;6.54;48.77;102353.09;4951720;28;20051;-77
2021/04/26 07:44:59;;;;;;;4.20;0.82;;;;;;;6.37;46.73;102351.38;4954498;28;20062;-76
2021/04/26 07:47:25;;;;;;;2.45;0.95;;;;;;;6.49;48.39;102347.28;4971878;28;20047;-75
2021/04/26 07:49:50;;;;;;;1.88;0.82;;;;;;;6.45;48.23;102354.41;4969040;28;20138;-77
2021/04/26 07:52:16;;;;;;;5.32;1.00;;;;;;;6.48;48.47;102349.03;4953337;28;20114;-77
2021/04/26 07:54:42;;;;;;;1.30;0.60;;;;;;;6.70;46.93;102353.94;4954006;28;20107;-79
2021/04/26 07:57:08;;;;;;;1.67;0.60;;;;;;;6.73;44.84;102351.19;4975305;28;20066;-78
2021/04/26 07:59:34;;;;;;;1.60;1.02;;;;;;;6.95;45.53;102348.28;4959324;28;20071;-79
2021/04/26 08:02:20;;;;;;;2.20;0.80;;;;;;;6.97;46.19;102342.97;4933757;28;20517;-76
2021/04/26 08:05:06;;;;;;;2.65;0.73;;;;;;;7.02;46.05;102339.16;4911136;28;20125;-77
2021/04/26 08:07:53;;;;;;;2.33;0.70;;;;;;;7.14;44.88;102332.44;4920517;29;20051;-79
2021/04/26 08:10:39;;;;;;;0.68;0.57;;;;;;;7.14;44.01;102339.41;4932452;29;20048;-76
2021/04/26 08:13:26;;;;;;;2.83;0.40;;;;;;;7.20;42.78;102334.69;4924902;28;20043;-77
2021/04/26 08:16:12;;;;;;;1.05;0.47;;;;;;;7.41;43.02;102334.44;4912570;28;20122;-76
2021/04/26 08:18:58;;;;;;;2.67;0.43;;;;;;;7.51;41.62;102326.91;4953977;28;20074;-76
2021/04/26 08:21:45;;;;;;;1.00;0.40;;;;;;;7.49;41.55;102329.59;4936862;28;20508;-79
2021/04/26 08:24:31;;;;;;;2.65;0.55;;;;;;;7.39;42.68;102331.91;4910798;28;20051;-79
2021/04/26 08:27:17;;;;;;;2.17;0.60;;;;;;;7.53;42.53;102325.03;4935323;28;20071;-78
2021/04/26 08:30:05;;;;;;;2.13;0.60;;;;;;;7.74;44.10;102321.22;4957131;28;20289;-79
2021/04/26 08:32:51;;;;;;;2.03;0.68;;;;;;;8.11;40.74;102326.03;4936636;28;20067;-79
2021/04/26 08:35:37;;;;;;;2.20;0.60;;;;;;;8.12;40.49;102319.88;4935457;28;20047;-77
2021/04/26 08:38:23;;;;;;;2.75;0.70;;;;;;;8.21;41.13;102319.31;4933516;28;20110;-80
2021/04/26 08:41:13;;;;;;;2.25;0.70;;;;;;;7.99;40.71;102317.16;4949570;29;20082;-80
2021/04/26 08:43:59;;;;;;;1.95;0.90;;;;;;;8.13;39.56;102322.38;4960301;28;20122;-78
2021/04/26 08:46:46;;;;;;;3.85;0.90;;;;;;;8.20;41.27;102325.47;4940369;28;20082;-80
2021/04/26 08:49:33;;;;;;;1.92;0.80;;;;;;;8.17;40.79;102317.81;4925341;28;20051;-79
2021/04/26 08:52:18;;;;;;;4.55;0.82;;;;;;;8.22;39.25;102312.31;4930536;29;20128;-80
2021/04/26 08:55:05;;;;;;;3.13;0.80;;;;;;;8.19;39.11;102306.34;4961648;28;20059;-79
2021/04/26 08:57:51;;;;;;;2.65;0.90;;;;;;;8.58;41.12;102312.69;4957358;28;20142;-81
2021/04/26 09:00:37;;;;;;;2.47;0.63;;;;;;;8.84;39.43;102309.41;4934931;28;20047;-81
2021/04/26 09:03:37;;;;;;;2.53;0.80;;;;;;;8.93;39.96;102311.44;4961121;28;20058;-79
2021/04/26 09:06:06;;;;;;;3.10;0.75;;;;;;;8.67;39.29;102307.84;4960877;28;20050;-77
2021/04/26 09:08:32;;;;;;;1.95;0.70;;;;;;;8.77;39.84;102303.72;4979685;28;20069;-79
2021/04/26 09:11:06;;;;;;;4.25;0.73;;;;;;;8.82;39.20;102301.66;4948616;28;20542;-81
2021/04/26 09:13:37;;;;;;;3.58;0.90;;;;;;;8.93;39.27;102309.66;4945595;28;20083;-76
2021/04/26 09:16:26;;;;;;;1.98;0.80;;;;;;;8.92;39.45;102294.88;4945484;29;20111;-76
2021/04/26 09:18:57;;;;;;;2.70;0.80;;;;;;;8.83;38.45;102292.84;4965911;28;20047;-82
2021/04/26 09:21:26;;;;;;;2.15;0.85;;;;;;;8.54;38.75;102298.13;4961452;28;20051;-79
2021/04/26 09:24:18;;;;;;;2.65;0.80;;;;;;;8.70;38.81;102286.72;4944819;28;20056;-78
2021/04/26 09:26:49;;;;;;;2.95;0.93;;;;;;;9.02;39.83;102286.44;4935566;29;20038;-79
2021/04/26 09:29:21;;;;;;;1.63;0.90;;;;;;;9.40;38.04;102280.50;4933844;28;20055;-81
2021/04/26 09:32:10;;;;;;;5.30;1.05;;;;;;;9.40;37.60;102273.50;4945731;28;20086;-79
2021/04/26 09:34:50;;;;;;;2.38;1.05;;;;;;;9.59;37.32;102280.97;4946785;29;20123;-81
2021/04/26 09:37:24;;;;;;;3.55;0.93;;;;;;;9.64;39.67;102265.75;4943831;29;20048;-78
2021/04/26 09:40:05;;;;;;;2.75;0.90;;;;;;;9.93;37.00;102269.03;4972206;28;20069;-76
2021/04/26 09:42:34;;;;;;;1.50;0.80;;;;;;;10.13;36.74;102264.19;4944436;29;20062;-80
2021/04/26 09:45:15;;;;;;;0.80;0.80;;;;;;;10.29;35.40;102264.00;4938822;28;20051;-78
2021/04/26 09:47:41;;;;;;;2.28;0.98;;;;;;;10.14;36.63;102258.84;4930512;28;20051;-80
2021/04/26 09:50:07;;;;;;;3.75;0.82;;;;;;;10.25;35.51;102259.91;4964331;28;20140;-76
2021/04/26 09:52:32;;;;;;;3.00;1.20;;;;;;;10.20;37.14;102254.13;4923647;29;20382;-79
2021/04/26 09:54:58;;;;;;;2.50;0.90;;;;;;;10.59;35.49;102252.31;4945258;29;20047;-75
2021/04/26 09:57:24;;;;;;;3.60;0.80;;;;;;;10.86;36.63;102250.31;4954297;28;20553;-79
2021/04/26 09:59:50;;;;;;;5.30;0.90;;;;;;;10.85;33.93;102251.25;4944047;28;20512;-80
2021/04/26 10:02:16;;;;;;;2.88;0.90;;;;;;;10.82;34.45;102251.47;4972826;28;20043;-79
2021/04/26 10:04:42;;;;;;;2.03;0.75;;;;;;;11.05;33.88;102246.34;4966730;28;20501;-79
2021/04/26 10:07:08;;;;;;;2.75;1.00;;;;;;;11.24;33.18;102245.81;4974423;28;20043;-77
2021/04/26 10:09:34;;;;;;;1.38;0.82;;;;;;;11.20;33.40;102237.31;4954326;28;20062;-75
2021/04/26 10:12:00;;;;;;;2.00;1.08;;;;;;;11.16;34.18;102235.03;4938678;28;20166;-77
2021/04/26 10:14:25;;;;;;;2.20;0.88;;;;;;;11.34;36.01;102240.69;4972183;28;20066;-78
2021/04/26 10:17:02;;;;;;;3.00;1.17;;;;;;;11.45;32.91;102240.72;4961337;28;20059;-78
2021/04/26 10:19:30;;;;;;;5.00;0.90;;;;;;;11.64;34.74;102237.53;4961763;28;20121;-79
2021/04/26 10:21:57;;;;;;;2.30;0.90;;;;;;;11.24;32.63;102237.94;4966272;28;20051;-77
2021/04/26 10:24:25;;;;;;;3.20;1.30;;;;;;;10.81;33.15;102239.31;4958211;28;20143;-80
2021/04/26 10:26:52;;;;;;;6.80;1.38;;;;;;;10.67;33.01;102240.28;4974608;28;20074;-78
2021/04/26 10:29:31;;;;;;;3.53;1.17;;;;;;;10.79;32.49;102232.47;4984005;28;20094;-79
2021/04/26 10:31:57;;;;;;;1.58;1.10;;;;;;;10.86;33.60;102236.34;4961201;28;20057;-77
2021/04/26 10:34:23;;;;;;;1.05;0.95;;;;;;;10.77;32.78;102229.97;4963182;28;20047;-77
2021/04/26 10:36:53;;;;;;;1.77;1.08;;;;;;;10.80;31.78;102231.56;4960296;28;20056;-78
2021/04/26 10:39:21;;;;;;;2.58;1.10;;;;;;;10.81;33.44;102225.34;4967602;28;20043;-81
2021/04/26 10:41:50;;;;;;;2.00;1.00;;;;;;;11.28;32.91;102223.59;4947042;28;20047;-79
2021/04/26 10:44:38;;;;;;;2.72;1.20;;;;;;;11.84;32.15;102223.72;4979365;28;20115;-81
2021/04/26 10:47:24;;;;;;;3.92;1.10;;;;;;;12.08;33.79;102221.00;4948467;28;20054;-80
2021/04/26 10:50:15;;;;;;;2.10;1.10;;;;;;;11.72;32.04;102218.59;4963843;28;20348;-77
2021/04/26 10:52:43;;;;;;;3.53;1.02;;;;;;;11.70;30.63;102218.69;4957981;28;20077;-80
2021/04/26 10:55:09;;;;;;;2.38;1.00;;;;;;;11.54;31.47;102212.94;4955678;28;20510;-78
2021/04/26 10:57:40;;;;;;;2.05;1.02;;;;;;;11.27;31.32;102204.41;4960517;28;20147;-79
2021/04/26 11:00:21;;;;;;;1.95;0.90;;;;;;;11.08;32.45;102204.09;4965745;28;20055;-79
2021/04/26 11:02:48;;;;;;;3.30;1.10;;;;;;;10.93;31.45;102186.88;4978752;28;20055;-77
2021/04/26 11:05:28;;;;;;;5.47;1.25;;;;;;;10.65;32.82;102183.63;4955338;28;20055;-78
2021/04/26 11:08:03;;;;;;;2.80;1.20;;;;;;;10.57;33.27;102183.34;4950132;29;20098;-79
2021/04/26 11:10:32;;;;;;;5.80;1.17;;;;;;;10.76;33.16;102178.44;4957265;28;20047;-78
2021/04/26 11:13:01;;;;;;;2.63;1.20;;;;;;;10.78;33.04;102181.78;4936788;28;20043;-76
2021/04/26 11:15:27;;;;;;;5.78;1.00;;;;;;;10.76;32.53;102182.88;4972179;28;20111;-76
2021/04/26 11:17:54;;;;;;;2.35;1.08;;;;;;;10.75;33.51;102174.13;4976579;28;20082;-77
2021/04/26 11:20:25;;;;;;;1.92;0.90;;;;;;;10.84;33.07;102170.00;4961958;28;20051;-77
2021/04/26 11:22:58;;;;;;;3.08;1.00;;;;;;;10.88;32.94;102167.03;4960359;28;20051;-78
2021/04/26 11:25:30;;;;;;;2.42;1.10;;;;;;;11.20;32.05;102162.94;4953909;28;20055;-77
2021/04/26 11:27:56;;;;;;;11.23;1.13;;;;;;;11.78;30.11;102158.47;4954768;28;20054;-78
2021/04/26 11:30:25;;;;;;;2.05;1.33;;;;;;;12.35;30.46;102155.81;4954323;28;20053;-79
2021/04/26 11:33:04;;;;;;;3.35;1.17;;;;;;;12.90;28.95;102140.75;4973894;28;20098;-77
2021/04/26 11:35:31;;;;;;;5.25;1.30;;;;;;;12.64;29.09;102148.19;4957041;28;20054;-78
2021/04/26 11:37:57;;;;;;;4.30;1.10;;;;;;;12.70;29.20;102145.03;4967958;28;20047;-74
2021/04/26 11:40:27;;;;;;;3.67;1.30;;;;;;;12.90;29.09;102139.91;4956571;28;20055;-76
2021/04/26 11:43:01;;;;;;;1.77;0.95;;;;;;;13.33;28.30;102131.91;4971292;28;20043;-77
2021/04/26 11:45:27;;;;;;;4.70;1.20;;;;;;;13.36;27.44;102136.91;4963933;28;20098;-77
2021/04/26 11:47:53;;;;;;;2.90;1.13;;;;;;;13.21;28.94;102133.75;4943934;29;20054;-80
2021/04/26 11:50:18;;;;;;;5.97;0.93;;;;;;;13.53;29.54;102130.22;4958658;28;20071;-77
2021/04/26 11:52:44;;;;;;;4.85;1.02;;;;;;;13.58;29.90;102129.78;4953055;29;20497;-77
2021/04/26 11:55:17;;;;;;;4.55;1.25;;;;;;;13.30;28.63;102131.28;4960840;28;20055;-76
2021/04/26 11:57:51;;;;;;;2.65;1.02;;;;;;;13.13;28.55;102127.44;4986254;28;20086;-78
2021/04/26 12:00:30;;;;;;;3.20;1.05;;;;;;;13.34;29.53;102111.69;4946678;29;20047;-77
2021/04/26 12:03:04;;;;;;;3.38;1.20;;;;;;;13.17;28.26;102116.53;4965710;28;20115;-77
2021/04/26 12:05:30;;;;;;;1.95;1.10;;;;;;;13.60;29.93;102120.81;4971126;28;20062;-76
2021/04/26 12:07:56;;;;;;;2.47;1.30;;;;;;;13.60;27.78;102110.25;4967835;28;20540;-77
2021/04/26 12:10:25;;;;;;;3.13;1.10;;;;;;;13.22;28.45;102105.59;4977470;28;20058;-76
2021/04/26 12:12:56;;;;;;;3.00;0.90;;;;;;;13.37;27.94;102114.03;4932304;28;20043;-76
2021/04/26 12:15:24;;;;;;;1.98;1.00;;;;;;;13.38;29.70;102108.63;4960209;28;20058;-77
2021/04/26 12:17:54;;;;;;;1.30;1.10;;;;;;;13.77;27.63;102100.88;4942689;29;20051;-76